createdAt,value
2018-06-25T00:00:07.318Z,86.90
2018-06-25T00:02:36.783Z,86.90
2018-06-25T00:05:06.335Z,87.20
2018-06-25T00:07:35.781Z,86.50
2018-06-25T00:10:05.240Z,86.50
2018-06-25T00:12:34.730Z,87.10
2018-06-25T00:15:04.338Z,86.90
2018-06-25T00:17:33.773Z,87.00
2018-06-25T00:20:03.248Z,86.90
2018-06-25T00:22:33.328Z,87.00
2018-06-25T00:25:02.797Z,86.60
2018-06-25T00:27:32.337Z,86.40
2018-06-25T00:30:01.735Z,86.40
2018-06-25T00:32:31.293Z,86.40
2018-06-25T00:35:00.828Z,86.50
2018-06-25T00:37:30.304Z,86.70
2018-06-25T00:39:59.807Z,86.40
2018-06-25T00:42:29.304Z,86.60
2018-06-25T00:44:58.743Z,86.40
2018-06-25T00:47:28.223Z,86.80
2018-06-25T00:49:57.762Z,86.80
2018-06-25T00:52:27.296Z,86.90
2018-06-25T00:54:56.768Z,87.60
2018-06-25T00:57:26.215Z,87.50
2018-06-25T00:59:56.878Z,87.70
2018-06-25T01:02:26.451Z,87.60
2018-06-25T01:04:55.893Z,87.70
2018-06-25T01:07:25.388Z,87.70
2018-06-25T01:09:54.893Z,87.50
2018-06-25T01:12:24.377Z,87.80
2018-06-25T01:14:53.802Z,87.80
2018-06-25T01:17:23.250Z,88.00
2018-06-25T01:19:52.864Z,87.80
2018-06-25T01:22:22.370Z,87.60
2018-06-25T01:24:51.835Z,87.30
2018-06-25T01:27:21.283Z,87.10
2018-06-25T01:29:50.844Z,87.20
2018-06-25T01:32:20.343Z,87.20
2018-06-25T01:34:49.751Z,87.30
2018-06-25T01:37:19.309Z,87.40
2018-06-25T01:39:48.755Z,87.40
2018-06-25T01:42:18.208Z,87.40
2018-06-25T01:44:47.661Z,87.20
2018-06-25T01:47:17.223Z,87.40
2018-06-25T01:49:46.690Z,87.40
2018-06-25T01:52:16.153Z,87.20
2018-06-25T01:54:45.581Z,86.90
2018-06-25T01:57:15.147Z,86.60
2018-06-25T01:59:44.686Z,86.50
2018-06-25T02:02:14.090Z,86.00
2018-06-25T02:04:43.612Z,86.80
2018-06-25T02:07:13.072Z,87.10
2018-06-25T02:09:42.519Z,87.50
2018-06-25T02:12:11.966Z,88.20
2018-06-25T02:14:41.459Z,88.60
2018-06-25T02:17:11.509Z,88.80
2018-06-25T02:19:40.942Z,88.80
2018-06-25T02:22:10.420Z,88.90
2018-06-25T02:24:39.918Z,88.80
2018-06-25T02:27:09.864Z,88.80
2018-06-25T02:29:39.316Z,88.40
2018-06-25T02:32:08.921Z,88.20
2018-06-25T02:34:38.363Z,88.20
2018-06-25T02:37:07.860Z,88.30
2018-06-25T02:39:37.338Z,88.20
2018-06-25T02:42:06.871Z,88.10
2018-06-25T02:44:36.379Z,87.80
2018-06-25T02:47:05.844Z,87.70
2018-06-25T02:49:35.261Z,88.30
2018-06-25T02:52:04.721Z,88.40
2018-06-25T02:54:34.332Z,88.20
2018-06-25T02:57:03.795Z,88.40
2018-06-25T02:59:33.220Z,88.60
2018-06-25T03:02:02.670Z,88.60
2018-06-25T03:04:32.093Z,88.20
2018-06-25T03:07:01.591Z,88.40
2018-06-25T03:09:31.074Z,88.10
2018-06-25T03:12:00.736Z,88.20
2018-06-25T03:14:30.128Z,88.00
2018-06-25T03:16:59.616Z,87.90
2018-06-25T03:19:29.789Z,87.60
2018-06-25T03:21:59.350Z,87.50
2018-06-25T03:24:29.006Z,87.00
2018-06-25T03:26:58.445Z,87.10
2018-06-25T03:29:27.963Z,87.00
2018-06-25T03:31:57.404Z,87.10
2018-06-25T03:34:26.876Z,86.90
2018-06-25T03:36:56.305Z,87.00
2018-06-25T03:39:26.225Z,87.10
2018-06-25T03:41:55.687Z,87.10
2018-06-25T03:44:25.109Z,87.30
2018-06-25T03:46:54.703Z,87.20
2018-06-25T03:49:24.175Z,87.10
2018-06-25T03:51:53.617Z,87.30
2018-06-25T03:54:23.070Z,87.00
2018-06-25T03:56:52.710Z,86.80
2018-06-25T03:59:22.203Z,87.10
2018-06-25T04:01:51.637Z,86.70
2018-06-25T04:04:21.633Z,86.50
2018-06-25T04:06:51.205Z,86.50
2018-06-25T04:09:20.803Z,86.30
2018-06-25T04:11:50.225Z,86.30
2018-06-25T04:14:19.655Z,85.90
2018-06-25T04:16:49.170Z,85.80
2018-06-25T04:19:18.748Z,85.50
2018-06-25T04:21:49.195Z,86.00
2018-06-25T04:24:18.632Z,85.70
2018-06-25T04:26:48.141Z,85.70
2018-06-25T04:29:17.605Z,86.20
2018-06-25T04:31:47.220Z,86.20
2018-06-25T04:34:16.762Z,86.40
2018-06-25T04:36:46.404Z,86.20
2018-06-25T04:39:16.029Z,86.70
2018-06-25T04:41:45.500Z,87.10
2018-06-25T04:44:14.939Z,86.90
2018-06-25T04:46:44.476Z,87.10
2018-06-25T04:49:14.108Z,87.50
2018-06-25T04:51:43.616Z,87.70
2018-06-25T04:54:13.238Z,86.50
2018-06-25T04:56:42.836Z,87.00
2018-06-25T04:59:12.344Z,87.00
2018-06-25T05:01:41.811Z,86.90
2018-06-25T05:04:11.412Z,86.60
2018-06-25T05:06:40.938Z,86.40
2018-06-25T05:09:11.156Z,86.90
2018-06-25T05:11:41.158Z,86.20
2018-06-25T05:14:11.936Z,86.10
2018-06-25T05:16:41.522Z,85.70
2018-06-25T05:19:10.970Z,84.80
2018-06-25T05:21:40.434Z,85.80
2018-06-25T05:24:09.907Z,86.00
2018-06-25T05:26:39.476Z,86.40
2018-06-25T05:29:09.313Z,86.20
2018-06-25T05:31:38.782Z,86.40
2018-06-25T05:34:08.297Z,86.50
2018-06-25T05:36:37.982Z,85.80
2018-06-25T05:39:11.042Z,86.30
2018-06-25T05:41:41.285Z,86.20
2018-06-25T05:44:11.025Z,85.60
2018-06-25T05:46:40.500Z,85.30
2018-06-25T05:49:10.285Z,84.40
2018-06-25T05:51:39.877Z,84.40
2018-06-25T05:54:09.364Z,84.00
2018-06-25T05:56:38.832Z,83.50
2018-06-25T05:59:08.250Z,83.40
2018-06-25T06:01:37.823Z,83.80
2018-06-25T06:04:07.398Z,83.80
2018-06-25T06:06:36.847Z,83.70
2018-06-25T06:09:09.059Z,82.90
2018-06-25T06:11:38.603Z,83.10
2018-06-25T06:14:08.207Z,83.10
2018-06-25T06:16:37.669Z,82.80
2018-06-25T06:19:07.100Z,81.00
2018-06-25T06:21:36.558Z,82.10
2018-06-25T06:24:06.089Z,82.60
2018-06-25T06:26:35.500Z,82.70
2018-06-25T06:29:04.967Z,82.60
2018-06-25T06:31:34.664Z,82.10
2018-06-25T06:34:04.130Z,81.20
2018-06-25T06:36:34.343Z,80.80
2018-06-25T06:39:04.006Z,80.30
2018-06-25T06:41:33.536Z,81.20
2018-06-25T06:44:03.039Z,81.00
2018-06-25T06:46:32.483Z,80.80
2018-06-25T06:49:02.930Z,80.20
2018-06-25T06:51:32.807Z,80.70
2018-06-25T06:54:02.956Z,81.50
2018-06-25T06:56:32.552Z,81.30
2018-06-25T06:59:02.000Z,81.40
2018-06-25T07:01:32.319Z,80.90
2018-06-25T07:04:01.968Z,80.80
2018-06-25T07:06:31.651Z,80.60
2018-06-25T07:11:30.749Z,79.60
2018-06-25T07:14:00.333Z,79.50
2018-06-25T07:16:29.882Z,79.10
2018-06-25T07:18:59.491Z,78.80
2018-06-25T07:21:29.021Z,79.10
2018-06-25T07:24:05.142Z,78.60
2018-06-25T07:26:34.711Z,77.90
2018-06-25T07:29:04.194Z,77.10
2018-06-25T07:31:33.795Z,77.40
2018-06-25T07:34:03.483Z,77.40
2018-06-25T07:36:32.970Z,77.30
2018-06-25T07:39:02.458Z,77.20
2018-06-25T07:41:32.011Z,78.00
2018-06-25T07:44:02.010Z,78.20
2018-06-25T07:46:31.623Z,77.90
2018-06-25T07:49:01.079Z,77.60
2018-06-25T07:51:30.628Z,78.10
2018-06-25T07:54:00.176Z,77.20
2018-06-25T07:56:29.658Z,77.40
2018-06-25T07:58:59.235Z,77.10
2018-06-25T08:01:29.919Z,76.10
2018-06-25T08:06:28.619Z,75.20
2018-06-25T08:08:58.166Z,74.80
2018-06-25T08:11:27.679Z,75.10
2018-06-25T08:13:57.202Z,73.30
2018-06-25T08:16:26.625Z,72.50
2018-06-25T08:18:56.282Z,72.50
2018-06-25T08:21:25.839Z,72.70
2018-06-25T08:23:55.316Z,72.70
2018-06-25T08:26:24.808Z,71.70
2018-06-25T08:28:54.289Z,71.90
2018-06-25T08:31:23.836Z,71.10
2018-06-25T08:33:53.504Z,71.00
2018-06-25T08:36:22.909Z,70.50
2018-06-25T08:38:52.658Z,69.60
2018-06-25T08:41:22.439Z,69.20
2018-06-25T08:43:51.872Z,68.90
2018-06-25T08:46:21.299Z,68.60
2018-06-25T08:48:57.524Z,68.70
2018-06-25T08:51:26.999Z,68.40
2018-06-25T08:53:57.757Z,67.30
2018-06-25T08:56:27.272Z,66.10
2018-06-25T08:58:56.907Z,66.70
2018-06-25T09:01:26.371Z,66.80
2018-06-25T09:03:55.878Z,67.30
2018-06-25T09:06:25.473Z,65.40
2018-06-25T09:08:55.036Z,63.30
2018-06-25T09:11:24.505Z,63.20
2018-06-25T09:13:53.988Z,62.90
2018-06-25T09:16:23.563Z,63.00
2018-06-25T09:18:53.135Z,62.60
2018-06-25T09:21:22.655Z,62.20
2018-06-25T09:23:52.105Z,61.40
2018-06-25T09:26:21.684Z,62.60
2018-06-25T09:28:51.842Z,61.70
2018-06-25T09:31:21.357Z,60.80
2018-06-25T09:33:50.816Z,63.70
2018-06-25T09:36:20.447Z,62.90
2018-06-25T09:38:49.960Z,64.40
2018-06-25T09:41:19.489Z,65.30
2018-06-25T09:43:51.926Z,62.70
2018-06-25T09:46:21.411Z,61.70
2018-06-25T09:48:50.958Z,62.20
2018-06-25T09:51:20.530Z,61.80
2018-06-25T09:53:49.986Z,60.40
2018-06-25T09:56:19.511Z,60.40
2018-06-25T09:58:49.079Z,62.30
2018-06-25T10:01:18.689Z,60.20
2018-06-25T10:03:48.183Z,60.50
2018-06-25T10:06:17.680Z,62.10
2018-06-25T10:08:47.244Z,61.10
2018-06-25T10:11:16.762Z,61.70
2018-06-25T10:13:46.227Z,59.20
2018-06-25T10:16:15.756Z,59.00
2018-06-25T10:18:45.674Z,57.60
2018-06-25T10:21:15.223Z,58.50
2018-06-25T10:23:44.793Z,58.20
2018-06-25T10:26:14.373Z,57.10
2018-06-25T10:28:44.102Z,58.90
2018-06-25T10:31:13.606Z,59.80
2018-06-25T10:33:43.154Z,58.50
2018-06-25T10:36:12.831Z,57.90
2018-06-25T10:38:43.011Z,58.20
2018-06-25T10:41:12.987Z,57.90
2018-06-25T10:43:42.472Z,58.40
2018-06-25T10:46:12.855Z,59.70
2018-06-25T10:48:42.452Z,60.10
2018-06-25T10:51:12.841Z,60.60
2018-06-25T10:53:42.355Z,60.50
2018-06-25T10:56:11.845Z,63.30
2018-06-25T10:58:41.442Z,63.30
2018-06-25T11:01:11.129Z,62.00
2018-06-25T11:03:40.726Z,62.50
2018-06-25T11:06:10.827Z,62.80
2018-06-25T11:08:41.204Z,62.80
2018-06-25T11:11:10.799Z,63.20
2018-06-25T11:13:40.364Z,62.00
2018-06-25T11:16:16.549Z,59.90
2018-06-25T11:18:46.075Z,60.20
2018-06-25T11:21:17.116Z,62.30
2018-06-25T11:23:46.703Z,60.50
2018-06-25T11:26:16.201Z,60.30
2018-06-25T11:28:45.713Z,61.50
2018-06-25T11:31:15.389Z,61.40
2018-06-25T11:33:44.942Z,60.00
2018-06-25T11:36:14.600Z,61.40
2018-06-25T11:38:44.138Z,61.70
2018-06-25T11:41:13.873Z,60.50
2018-06-25T11:43:43.348Z,62.50
2018-06-25T11:46:12.876Z,59.50
2018-06-25T11:48:42.554Z,58.90
2018-06-25T11:51:12.753Z,57.40
2018-06-25T11:53:42.242Z,56.80
2018-06-25T11:56:11.687Z,56.00
2018-06-25T11:58:41.200Z,56.90
2018-06-25T12:01:10.742Z,54.40
2018-06-25T12:03:40.219Z,56.70
2018-06-25T12:06:09.743Z,54.50
2018-06-25T12:08:39.544Z,54.70
2018-06-25T12:11:09.046Z,54.80
2018-06-25T12:13:38.514Z,54.20
2018-06-25T12:16:07.989Z,51.50
2018-06-25T12:18:37.557Z,49.20
2018-06-25T12:21:07.263Z,41.20
2018-06-25T12:23:36.710Z,39.80
2018-06-25T12:26:06.384Z,39.30
2018-06-25T12:28:36.029Z,39.00
2018-06-25T12:31:05.651Z,39.00
2018-06-25T12:33:35.104Z,41.90
2018-06-25T12:36:05.076Z,43.50
2018-06-25T12:38:34.692Z,43.80
2018-06-25T12:41:04.293Z,41.50
2018-06-25T12:43:33.806Z,42.50
2018-06-25T12:46:03.251Z,39.50
2018-06-25T12:48:32.838Z,37.80
2018-06-25T12:51:02.302Z,39.70
2018-06-25T12:53:31.796Z,39.10
2018-06-25T12:56:01.342Z,35.50
2018-06-25T12:58:30.927Z,35.10
2018-06-25T13:01:00.472Z,36.00
2018-06-25T13:03:29.934Z,35.10
2018-06-25T13:08:28.831Z,32.10
2018-06-25T13:10:58.304Z,32.70
2018-06-25T13:13:27.842Z,33.60
2018-06-25T13:15:57.386Z,32.50
2018-06-25T13:18:27.123Z,32.70
2018-06-25T13:20:56.700Z,35.50
2018-06-25T13:23:26.166Z,35.70
2018-06-25T13:25:55.886Z,34.70
2018-06-25T13:28:28.782Z,35.70
2018-06-25T13:30:58.302Z,32.10
2018-06-25T13:33:27.752Z,30.40
2018-06-25T13:35:57.390Z,29.30
2018-06-25T13:38:26.940Z,28.70
2018-06-25T13:40:56.373Z,29.90
2018-06-25T13:43:25.794Z,27.40
2018-06-25T13:45:55.205Z,27.00
2018-06-25T13:48:24.867Z,26.70
2018-06-25T13:50:54.200Z,28.80
2018-06-25T13:53:23.618Z,28.90
2018-06-25T13:55:53.113Z,29.10
2018-06-25T13:58:22.664Z,30.00
2018-06-25T14:00:52.098Z,31.60
2018-06-25T14:03:21.630Z,31.90
2018-06-25T14:05:51.459Z,28.50
2018-06-25T14:08:20.872Z,29.20
2018-06-25T14:10:51.189Z,29.00
2018-06-25T14:13:20.629Z,28.30
2018-06-25T14:15:50.171Z,25.90
2018-06-25T14:18:19.857Z,25.10
2018-06-25T14:20:49.467Z,24.90
2018-06-25T14:23:19.113Z,24.80
2018-06-25T14:25:53.769Z,23.70
2018-06-25T14:28:28.483Z,23.80
2018-06-25T14:31:03.112Z,23.50
2018-06-25T14:33:37.765Z,23.70
2018-06-25T14:36:08.919Z,23.10
2018-06-25T14:38:38.449Z,23.30
2018-06-25T14:41:07.983Z,24.60
2018-06-25T14:43:37.561Z,24.90
2018-06-25T14:46:07.242Z,23.70
2018-06-25T14:48:36.751Z,23.40
2018-06-25T14:51:06.374Z,24.10
2018-06-25T14:53:35.866Z,25.90
2018-06-25T14:56:05.948Z,28.80
2018-06-25T14:58:35.474Z,28.40
2018-06-25T15:01:04.957Z,30.60
2018-06-25T15:03:34.621Z,32.80
2018-06-25T15:06:04.179Z,33.00
2018-06-25T15:08:37.002Z,31.60
2018-06-25T15:11:06.642Z,27.00
2018-06-25T15:13:36.114Z,24.20
2018-06-25T15:16:05.580Z,24.10
2018-06-25T15:18:35.162Z,25.00
2018-06-25T15:21:04.869Z,24.00
2018-06-25T15:23:34.320Z,21.80
2018-06-25T15:26:03.799Z,21.00
2018-06-25T15:28:33.299Z,21.80
2018-06-25T15:31:02.979Z,21.70
2018-06-25T15:33:32.463Z,20.40
2018-06-25T15:36:01.975Z,20.90
2018-06-25T15:38:31.498Z,19.90
2018-06-25T15:41:00.984Z,19.40
2018-06-25T15:43:30.498Z,19.10
2018-06-25T15:46:00.076Z,19.20
2018-06-25T15:48:29.555Z,18.20
2018-06-25T15:50:59.045Z,16.90
2018-06-25T15:53:28.568Z,18.00
2018-06-25T15:55:58.148Z,16.80
2018-06-25T15:58:27.610Z,19.30
2018-06-25T16:00:57.127Z,20.40
2018-06-25T16:03:26.780Z,19.90
2018-06-25T16:05:56.345Z,18.70
2018-06-25T16:08:25.850Z,18.40
2018-06-25T16:10:55.403Z,18.10
2018-06-25T16:13:24.918Z,18.10
2018-06-25T16:15:54.394Z,18.00
2018-06-25T16:18:23.963Z,17.30
2018-06-25T16:20:53.513Z,19.00
2018-06-25T16:23:23.131Z,18.90
2018-06-25T16:25:52.601Z,19.10
2018-06-25T16:28:22.141Z,21.40
2018-06-25T16:30:51.668Z,23.70
2018-06-25T16:33:21.198Z,25.60
2018-06-25T16:35:50.689Z,26.20
2018-06-25T16:38:20.153Z,26.10
2018-06-25T16:40:49.684Z,24.80
2018-06-25T16:43:19.124Z,23.40
2018-06-25T16:45:48.674Z,23.00
2018-06-25T16:48:18.110Z,22.00
2018-06-25T16:50:47.598Z,22.40
2018-06-25T16:53:17.148Z,22.40
2018-06-25T16:55:46.722Z,22.40
2018-06-25T16:58:16.239Z,23.10
2018-06-25T17:00:45.826Z,22.40
2018-06-25T17:03:15.354Z,22.80
2018-06-25T17:05:44.900Z,24.50
2018-06-25T17:08:14.459Z,25.20
2018-06-25T17:10:44.015Z,27.00
2018-06-25T17:13:13.496Z,29.10
2018-06-25T17:15:43.008Z,31.30
2018-06-25T17:18:12.427Z,29.40
2018-06-25T17:20:41.948Z,31.60
2018-06-25T17:23:11.460Z,33.00
2018-06-25T17:25:40.969Z,33.90
2018-06-25T17:28:11.051Z,33.80
2018-06-25T17:30:40.626Z,35.80
2018-06-25T17:33:10.233Z,37.60
2018-06-25T17:35:39.689Z,37.60
2018-06-25T17:38:09.157Z,38.80
2018-06-25T17:40:39.077Z,38.50
2018-06-25T17:43:08.615Z,39.80
2018-06-25T17:45:38.057Z,39.30
2018-06-25T17:48:07.642Z,41.10
2018-06-25T17:50:37.075Z,41.50
2018-06-25T17:53:06.713Z,41.00
2018-06-25T17:55:36.259Z,40.20
2018-06-25T17:58:05.892Z,41.60
2018-06-25T18:00:35.377Z,40.70
2018-06-25T18:03:05.404Z,39.70
2018-06-25T18:05:34.832Z,40.80
2018-06-25T18:08:04.373Z,40.20
2018-06-25T18:10:33.927Z,41.90
2018-06-25T18:13:03.417Z,42.40
2018-06-25T18:15:32.877Z,42.90
2018-06-25T18:18:02.490Z,43.90
2018-06-25T18:20:32.262Z,42.70
2018-06-25T18:23:01.724Z,42.20
2018-06-25T18:25:31.392Z,43.70
2018-06-25T18:28:01.084Z,43.40
2018-06-25T18:30:30.588Z,43.60
2018-06-25T18:33:00.035Z,45.20
2018-06-25T18:35:29.635Z,43.60
2018-06-25T18:37:59.148Z,44.20
2018-06-25T18:40:29.272Z,44.40
2018-06-25T18:42:58.681Z,44.90
2018-06-25T18:45:28.193Z,45.10
2018-06-25T18:47:57.650Z,45.20
2018-06-25T18:50:27.243Z,45.20
2018-06-25T18:52:56.776Z,46.50
2018-06-25T18:55:26.385Z,47.40
2018-06-25T18:57:55.812Z,46.70
2018-06-25T19:00:25.307Z,46.80
2018-06-25T19:02:54.846Z,46.40
2018-06-25T19:05:24.393Z,47.50
2018-06-25T19:07:53.860Z,48.10
2018-06-25T19:12:53.781Z,48.70
2018-06-25T19:15:24.671Z,49.50
2018-06-25T19:17:54.351Z,49.60
2018-06-25T19:20:24.770Z,49.40
2018-06-25T19:22:54.963Z,50.20
2018-06-25T19:25:24.514Z,50.30
2018-06-25T19:27:54.801Z,50.50
2018-06-25T19:30:25.430Z,50.90
2018-06-25T19:32:55.464Z,51.50
2018-06-25T19:35:26.193Z,51.50
2018-06-25T19:37:56.748Z,51.90
2018-06-25T19:42:56.630Z,52.40
2018-06-25T19:45:26.791Z,53.00
2018-06-25T19:50:25.453Z,53.70
2018-06-25T19:53:02.059Z,53.80
2018-06-25T19:55:32.434Z,54.40
2018-06-25T19:58:03.147Z,55.10
2018-06-25T20:00:33.302Z,55.20
2018-06-25T20:03:03.795Z,55.90
2018-06-25T20:05:34.138Z,55.10
2018-06-25T20:08:04.090Z,56.30
2018-06-25T20:10:34.928Z,56.90
2018-06-25T20:13:05.550Z,57.30
2018-06-25T20:15:35.085Z,57.60
2018-06-25T20:18:04.707Z,57.80
2018-06-25T20:20:34.269Z,58.40
2018-06-25T20:23:03.937Z,58.80
2018-06-25T20:25:33.506Z,59.50
2018-06-25T20:28:02.963Z,59.60
2018-06-25T20:30:32.538Z,60.10
2018-06-25T20:33:02.105Z,60.80
2018-06-25T20:35:31.676Z,60.90
2018-06-25T20:38:01.217Z,61.60
2018-06-25T20:40:31.004Z,61.10
2018-06-25T20:43:00.601Z,62.60
2018-06-25T20:45:30.061Z,62.40
2018-06-25T20:47:59.495Z,62.60
2018-06-25T20:50:28.982Z,63.10
2018-06-25T20:52:58.481Z,63.50
2018-06-25T20:55:27.971Z,64.00
2018-06-25T20:57:57.500Z,64.10
2018-06-25T21:00:27.156Z,64.80
2018-06-25T21:02:56.771Z,65.10
2018-06-25T21:05:26.268Z,65.20
2018-06-25T21:07:55.815Z,65.30
2018-06-25T21:10:25.396Z,65.70
2018-06-25T21:12:53.838Z,65.90
2018-06-25T21:17:52.688Z,66.50
2018-06-25T21:20:22.371Z,66.60
2018-06-25T21:22:51.824Z,66.90
2018-06-25T21:25:21.360Z,67.30
2018-06-25T21:27:50.909Z,67.50
2018-06-25T21:30:20.375Z,68.10
2018-06-25T21:32:49.856Z,68.30
2018-06-25T21:35:19.388Z,69.00
2018-06-25T21:37:48.991Z,69.20
2018-06-25T21:40:18.436Z,69.30
2018-06-25T21:42:50.898Z,69.40
2018-06-25T21:45:20.360Z,69.50
2018-06-25T21:47:49.947Z,69.80
2018-06-25T21:50:19.463Z,69.50
2018-06-25T21:52:48.883Z,69.70
2018-06-25T21:55:18.336Z,70.10
2018-06-25T21:57:47.919Z,70.40
2018-06-25T22:00:17.503Z,70.10
2018-06-25T22:02:46.934Z,70.90
2018-06-25T22:05:16.433Z,70.80
2018-06-25T22:07:46.052Z,70.90
2018-06-25T22:10:15.466Z,71.40
2018-06-25T22:12:44.994Z,71.40
2018-06-25T22:15:14.585Z,71.60
2018-06-25T22:17:44.112Z,72.00
2018-06-25T22:20:13.541Z,72.10
2018-06-25T22:22:43.019Z,72.10
2018-06-25T22:25:12.594Z,72.20
2018-06-25T22:27:42.024Z,72.30
2018-06-25T22:30:11.469Z,72.20
2018-06-25T22:32:40.987Z,72.10
2018-06-25T22:35:11.189Z,73.10
2018-06-25T22:37:40.660Z,72.50
2018-06-25T22:40:10.129Z,73.00
2018-06-25T22:42:41.698Z,72.80
2018-06-25T22:45:11.139Z,72.90
2018-06-25T22:47:40.670Z,73.00
2018-06-25T22:50:10.251Z,73.10
2018-06-25T22:52:39.749Z,73.20
2018-06-25T22:55:09.193Z,73.30
2018-06-25T22:57:38.735Z,73.40
2018-06-25T23:00:08.294Z,73.30
2018-06-25T23:02:37.767Z,73.50
2018-06-25T23:05:07.356Z,73.90
2018-06-25T23:07:36.827Z,73.60
2018-06-25T23:10:06.738Z,73.70
2018-06-25T23:12:36.316Z,73.50
2018-06-25T23:15:05.937Z,74.00
2018-06-25T23:17:35.384Z,74.30
2018-06-25T23:20:05.132Z,74.30
2018-06-25T23:22:34.588Z,74.20
2018-06-25T23:25:04.142Z,74.60
2018-06-25T23:27:33.609Z,74.70
2018-06-25T23:30:03.061Z,74.80
2018-06-25T23:32:32.498Z,74.80
2018-06-25T23:35:02.073Z,75.00
2018-06-25T23:37:31.525Z,75.50
2018-06-25T23:40:00.947Z,75.80
2018-06-25T23:42:30.435Z,75.80
2018-06-25T23:44:59.852Z,76.00
2018-06-25T23:47:29.273Z,76.40
2018-06-25T23:49:58.691Z,76.40
2018-06-25T23:52:28.296Z,76.30
2018-06-25T23:54:57.843Z,76.20
2018-06-25T23:57:27.246Z,76.50
2018-06-25T23:59:56.658Z,76.60
